Time;durP1;ratioP1;P1;durP2;ratioP2;P2;SDS_P1;SDS_P2;PMS_P1;PMS_P2;Temp;Humidity;BMP_temperature;BMP_pressure;BME280_temperature;BME280_humidity;BME280_pressure;Samples;Min_cycle;Max_cycle;Signal;HPM_P1;HPM_P2
2022/10/30 00:01:43;;;;;;;0.50;0.30;;;18.70;99.90;;;;;;5013000;28;20439;-77
2022/10/30 00:04:10;;;;;;;1.30;1.07;;;18.60;99.90;;;;;;5012545;28;20849;-76
2022/10/30 00:06:37;;;;;;;0.53;0.47;;;18.60;99.90;;;;;;5012815;28;20536;-76
2022/10/30 00:09:04;;;;;;;0.73;0.73;;;18.70;99.90;;;;;;5013069;28;20438;-76
2022/10/30 00:11:31;;;;;;;0.50;0.30;;;18.70;99.90;;;;;;5013329;28;20453;-77
2022/10/30 00:13:59;;;;;;;0.50;0.30;;;18.70;99.90;;;;;;5013801;28;20455;-76
2022/10/30 00:16:26;;;;;;;1.80;0.60;;;18.60;99.90;;;;;;5013342;28;20430;-77
2022/10/30 00:18:53;;;;;;;0.50;0.40;;;18.60;99.90;;;;;;5013305;28;20439;-76
2022/10/30 00:21:20;;;;;;;0.70;0.60;;;18.70;99.90;;;;;;5013410;28;20449;-76
2022/10/30 00:23:47;;;;;;;0.50;0.40;;;18.70;99.90;;;;;;5016707;28;20979;-77
2022/10/30 00:26:16;;;;;;;0.87;0.87;;;18.70;99.90;;;;;;5016040;28;20534;-77
2022/10/30 00:28:42;;;;;;;0.60;0.40;;;18.80;99.90;;;;;;5016031;28;20445;-77
2022/10/30 00:31:11;;;;;;;0.60;0.50;;;18.80;99.90;;;;;;5015996;28;20442;-76
2022/10/30 00:33:37;;;;;;;0.70;0.53;;;18.70;99.90;;;;;;5015802;28;20466;-76
2022/10/30 00:36:05;;;;;;;4.00;1.10;;;18.70;99.90;;;;;;5015889;28;20449;-76
2022/10/30 00:38:32;;;;;;;6.80;6.27;;;18.70;99.90;;;;;;5015718;28;20513;-77
2022/10/30 00:40:59;;;;;;;0.50;0.40;;;18.70;99.90;;;;;;5015969;28;20440;-77
2022/10/30 00:43:33;;;;;;;3.27;1.20;;;18.70;99.90;;;;;;5015703;28;20832;-77
2022/10/30 00:46:05;;;;;;;0.73;0.60;;;18.70;99.90;;;;;;5015629;28;20404;-77
2022/10/30 00:48:34;;;;;;;0.50;0.30;;;18.70;99.90;;;;;;5015666;28;20923;-77
2022/10/30 00:51:02;;;;;;;4.20;2.73;;;18.60;99.90;;;;;;5015635;28;20462;-77
2022/10/30 00:53:30;;;;;;;0.50;0.50;;;18.60;99.90;;;;;;5015524;28;20461;-77
2022/10/30 00:56:01;;;;;;;1.10;0.97;;;18.50;99.90;;;;;;5015382;28;20449;-78
2022/10/30 00:58:31;;;;;;;0.50;0.30;;;18.50;99.90;;;;;;5015250;28;20473;-77
2022/10/30 01:01:04;;;;;;;0.80;0.50;;;18.50;99.90;;;;;;5015473;28;20550;-77
2022/10/30 01:03:31;;;;;;;0.60;0.50;;;18.50;99.90;;;;;;5014975;28;20467;-76
2022/10/30 01:06:04;;;;;;;1.70;1.60;;;18.40;99.90;;;;;;5015361;28;20510;-77
2022/10/30 01:08:31;;;;;;;0.87;0.83;;;18.40;99.90;;;;;;5015513;28;20510;-77
2022/10/30 01:10:59;;;;;;;0.50;0.30;;;18.40;99.90;;;;;;5014952;28;21051;-77
2022/10/30 01:13:27;;;;;;;0.50;0.37;;;18.40;99.90;;;;;;5014985;28;20480;-77
2022/10/30 01:16:09;;;;;;;0.80;0.80;;;18.30;99.90;;;;;;5014743;28;20441;-77
2022/10/30 01:18:46;;;;;;;0.50;0.40;;;18.30;99.90;;;;;;5014650;28;20537;-77
2022/10/30 01:21:27;;;;;;;0.50;0.40;;;18.30;99.90;;;;;;5014984;28;20466;-77
2022/10/30 01:24:08;;;;;;;1.73;1.03;;;18.20;99.90;;;;;;5013365;28;20481;-75
2022/10/30 01:26:46;;;;;;;0.50;0.50;;;18.20;99.90;;;;;;5015274;28;20518;-76
2022/10/30 01:29:34;;;;;;;0.50;0.30;;;18.20;99.90;;;;;;5015286;28;20506;-77
2022/10/30 01:32:17;;;;;;;0.67;0.40;;;18.20;99.90;;;;;;5014804;28;20446;-77
2022/10/30 01:34:51;;;;;;;0.77;0.77;;;18.20;99.90;;;;;;5013462;28;20522;-76
2022/10/30 01:37:25;;;;;;;0.50;0.30;;;18.10;99.90;;;;;;5014364;28;20461;-77
2022/10/30 01:39:52;;;;;;;0.50;0.40;;;18.10;99.90;;;;;;5013996;28;20443;-77
2022/10/30 01:42:49;;;;;;;0.50;0.30;;;18.00;99.90;;;;;;5014629;28;20963;-77
2022/10/30 01:45:24;;;;;;;2.20;0.90;;;17.90;99.90;;;;;;5014173;28;20485;-77
2022/10/30 01:48:19;;;;;;;0.50;0.40;;;17.90;99.90;;;;;;5013981;28;20478;-78
2022/10/30 01:50:55;;;;;;;0.50;0.37;;;17.90;99.90;;;;;;5011274;28;20463;-77
2022/10/30 01:53:36;;;;;;;0.50;0.30;;;17.90;99.90;;;;;;5014980;28;20450;-77
2022/10/30 01:56:18;;;;;;;0.50;0.40;;;17.80;99.90;;;;;;5013913;28;20784;-77
2022/10/30 01:58:53;;;;;;;0.50;0.30;;;17.80;99.90;;;;;;5014719;28;20449;-77
2022/10/30 02:01:21;;;;;;;0.53;0.40;;;17.70;99.90;;;;;;5014441;28;20437;-77
2022/10/30 02:03:48;;;;;;;0.60;0.50;;;17.60;99.90;;;;;;5014441;28;20533;-77
2022/10/30 02:06:15;;;;;;;0.50;0.40;;;17.60;99.90;;;;;;5013941;28;20562;-77
2022/10/30 02:08:43;;;;;;;0.50;0.30;;;17.60;99.90;;;;;;5014286;28;20457;-77
2022/10/30 02:11:11;;;;;;;0.50;0.30;;;17.60;99.90;;;;;;5013271;28;20526;-76
2022/10/30 02:13:38;;;;;;;0.60;0.60;;;17.40;99.90;;;;;;5014048;28;20458;-77
2022/10/30 02:16:06;;;;;;;0.50;0.40;;;17.50;99.90;;;;;;5013654;28;20435;-77
2022/10/30 02:18:33;;;;;;;0.50;0.30;;;17.40;99.90;;;;;;5013978;28;20465;-77
2022/10/30 02:21:01;;;;;;;0.50;0.30;;;17.30;99.90;;;;;;5014189;28;20504;-77
2022/10/30 02:23:28;;;;;;;0.50;0.30;;;17.30;99.90;;;;;;5013042;28;20466;-77
2022/10/30 02:25:55;;;;;;;0.70;0.60;;;17.20;99.90;;;;;;5013620;28;20471;-77
2022/10/30 02:28:22;;;;;;;0.50;0.30;;;17.30;99.90;;;;;;5013858;28;20929;-77
2022/10/30 02:30:48;;;;;;;0.50;0.50;;;17.20;99.90;;;;;;5013529;28;20534;-77
2022/10/30 02:33:15;;;;;;;1.17;1.17;;;17.10;99.90;;;;;;5013589;28;20451;-77
2022/10/30 02:35:42;;;;;;;1.17;1.07;;;17.10;99.90;;;;;;5013022;28;20534;-77
2022/10/30 02:38:10;;;;;;;0.60;0.50;;;17.10;99.90;;;;;;5013492;28;20462;-76
2022/10/30 02:40:37;;;;;;;0.50;0.40;;;17.00;99.90;;;;;;5013653;28;20529;-77
2022/10/30 02:43:04;;;;;;;0.50;0.30;;;17.00;99.90;;;;;;5013261;28;20526;-77
2022/10/30 02:45:31;;;;;;;0.50;0.30;;;17.00;99.90;;;;;;5012154;28;20559;-77
2022/10/30 02:47:59;;;;;;;0.93;0.83;;;17.00;99.90;;;;;;5013728;28;20467;-76
2022/10/30 02:50:26;;;;;;;0.50;0.40;;;17.00;99.90;;;;;;5014346;28;20823;-77
2022/10/30 02:52:53;;;;;;;0.50;0.40;;;17.00;99.90;;;;;;5012638;28;20447;-76
2022/10/30 02:55:22;;;;;;;0.50;0.30;;;17.00;99.90;;;;;;5012372;28;20462;-77
2022/10/30 02:57:48;;;;;;;0.60;0.50;;;17.00;99.90;;;;;;5012362;28;20877;-76
2022/10/30 03:00:15;;;;;;;3.60;1.63;;;17.00;99.90;;;;;;5013325;28;20443;-76
2022/10/30 03:02:42;;;;;;;1.07;0.97;;;17.00;99.90;;;;;;5012525;28;20620;-77
2022/10/30 03:05:09;;;;;;;3.03;1.53;;;17.00;99.90;;;;;;5012347;28;20909;-77
2022/10/30 03:07:36;;;;;;;0.50;0.40;;;17.00;99.90;;;;;;5012482;28;20546;-77
2022/10/30 03:10:03;;;;;;;2.27;0.83;;;17.00;99.90;;;;;;5012949;28;20537;-76
2022/10/30 03:12:32;;;;;;;0.60;0.60;;;17.00;99.90;;;;;;5012460;28;20442;-77
2022/10/30 03:14:59;;;;;;;0.60;0.50;;;17.10;99.90;;;;;;5012462;28;20465;-77
2022/10/30 03:17:26;;;;;;;1.23;0.70;;;17.10;99.90;;;;;;5012522;28;20446;-77
2022/10/30 03:19:53;;;;;;;0.50;0.40;;;17.10;99.90;;;;;;5012844;28;20955;-77
2022/10/30 03:22:19;;;;;;;0.50;0.40;;;17.10;99.90;;;;;;5012440;28;21073;-77
2022/10/30 03:24:46;;;;;;;30.53;3.53;;;17.10;99.90;;;;;;5011665;28;20475;-77
2022/10/30 03:27:13;;;;;;;1.33;0.77;;;17.10;99.90;;;;;;5013187;28;20808;-77
2022/10/30 03:29:41;;;;;;;1.90;1.80;;;17.00;99.90;;;;;;5012610;28;20442;-77
2022/10/30 03:32:09;;;;;;;0.80;0.70;;;17.10;99.90;;;;;;5013278;28;20485;-77
2022/10/30 03:34:36;;;;;;;0.50;0.40;;;17.00;99.90;;;;;;5011813;28;20995;-77
2022/10/30 03:37:03;;;;;;;0.87;0.87;;;17.10;99.90;;;;;;5012694;28;20462;-77
2022/10/30 03:39:30;;;;;;;0.50;0.40;;;17.00;99.90;;;;;;5012549;28;20438;-77
2022/10/30 03:41:57;;;;;;;0.60;0.60;;;17.00;99.90;;;;;;5012392;28;20438;-77
2022/10/30 03:44:24;;;;;;;0.50;0.30;;;17.00;99.90;;;;;;5012310;28;20465;-77
2022/10/30 03:46:52;;;;;;;0.50;0.30;;;17.00;99.90;;;;;;5011608;28;20479;-77
2022/10/30 03:49:19;;;;;;;1.43;1.33;;;16.90;99.90;;;;;;5012301;28;20450;-77
2022/10/30 03:51:45;;;;;;;0.50;0.40;;;16.90;99.90;;;;;;5012728;28;20525;-77
2022/10/30 03:54:12;;;;;;;0.50;0.40;;;16.80;99.90;;;;;;5012283;28;20561;-77
2022/10/30 03:56:39;;;;;;;0.60;0.40;;;16.80;99.90;;;;;;5012732;28;20529;-77
2022/10/30 03:59:06;;;;;;;0.50;0.40;;;16.80;99.90;;;;;;5016166;28;20446;-77
2022/10/30 04:01:33;;;;;;;1.07;0.97;;;16.70;99.90;;;;;;5016463;28;20458;-77
2022/10/30 04:04:01;;;;;;;1.03;0.93;;;16.60;99.90;;;;;;5016086;28;20462;-77
2022/10/30 04:06:28;;;;;;;0.50;0.40;;;16.60;99.90;;;;;;5016054;28;21056;-77
2022/10/30 04:08:55;;;;;;;0.90;0.80;;;16.50;99.90;;;;;;5015297;28;20447;-78
2022/10/30 04:11:21;;;;;;;1.03;0.93;;;16.40;99.90;;;;;;5016320;28;20439;-77
2022/10/30 04:13:48;;;;;;;0.70;0.60;;;16.40;99.90;;;;;;5016281;28;20484;-77
2022/10/30 04:16:15;;;;;;;0.50;0.30;;;16.40;99.90;;;;;;5015512;28;20435;-77
2022/10/30 04:18:42;;;;;;;0.80;0.37;;;16.30;99.90;;;;;;5015931;28;20940;-77
2022/10/30 04:21:10;;;;;;;0.67;0.67;;;16.30;99.90;;;;;;5015740;28;20439;-77
2022/10/30 04:23:37;;;;;;;0.77;0.77;;;16.30;99.90;;;;;;5015259;28;20481;-77
2022/10/30 04:26:04;;;;;;;0.50;0.40;;;16.30;99.90;;;;;;5015972;28;20573;-77
2022/10/30 04:28:30;;;;;;;0.60;0.40;;;16.10;99.90;;;;;;5015858;28;20797;-77
2022/10/30 04:30:57;;;;;;;0.50;0.40;;;16.10;99.90;;;;;;5015627;28;20534;-77
2022/10/30 04:33:24;;;;;;;0.60;0.60;;;16.00;99.90;;;;;;5016485;28;20554;-77
2022/10/30 04:35:51;;;;;;;1.47;1.37;;;15.90;99.90;;;;;;5016681;28;20462;-76
2022/10/30 04:38:19;;;;;;;0.50;0.40;;;16.00;99.90;;;;;;5016112;28;20442;-76
2022/10/30 04:40:46;;;;;;;0.50;0.40;;;15.90;99.90;;;;;;5016608;28;20940;-76
2022/10/30 04:43:14;;;;;;;0.60;0.60;;;15.90;99.90;;;;;;5015599;28;20449;-76
2022/10/30 04:45:41;;;;;;;1.33;1.27;;;15.90;99.90;;;;;;5015940;28;20573;-76
2022/10/30 04:48:11;;;;;;;2.10;0.83;;;15.90;99.90;;;;;;5015682;28;20885;-77
2022/10/30 04:50:38;;;;;;;0.80;0.80;;;15.90;99.90;;;;;;5016072;28;20519;-78
2022/10/30 04:53:06;;;;;;;0.50;0.40;;;15.80;99.90;;;;;;5015837;28;20443;-76
2022/10/30 04:55:34;;;;;;;0.80;0.80;;;15.80;99.90;;;;;;5015515;28;20442;-76
2022/10/30 04:58:02;;;;;;;0.70;0.60;;;15.70;99.90;;;;;;5015809;28;20466;-77
2022/10/30 05:00:30;;;;;;;0.60;0.43;;;15.80;99.90;;;;;;5016174;28;20443;-76
2022/10/30 05:03:00;;;;;;;0.50;0.30;;;15.80;99.90;;;;;;5015929;28;20451;-77
2022/10/30 05:05:27;;;;;;;0.50;0.47;;;15.70;99.90;;;;;;5015708;28;20483;-77
2022/10/30 05:07:54;;;;;;;1.03;0.90;;;15.80;99.90;;;;;;5015296;28;20450;-77
2022/10/30 05:10:21;;;;;;;1.63;1.53;;;15.80;99.90;;;;;;5015731;28;20439;-77
2022/10/30 05:12:51;;;;;;;0.50;0.40;;;15.80;99.90;;;;;;5015803;28;20941;-77
2022/10/30 05:15:18;;;;;;;0.50;0.40;;;15.80;99.90;;;;;;5015255;28;20546;-77
2022/10/30 05:17:45;;;;;;;0.50;0.40;;;15.80;99.90;;;;;;5016204;28;20447;-76
2022/10/30 05:20:11;;;;;;;0.60;0.50;;;15.80;99.90;;;;;;5015954;28;20514;-77
2022/10/30 05:22:38;;;;;;;0.50;0.30;;;15.80;99.90;;;;;;5015853;28;20447;-76
2022/10/30 05:25:06;;;;;;;0.50;0.40;;;15.80;99.90;;;;;;5015057;28;21178;-77
2022/10/30 05:27:33;;;;;;;0.50;0.50;;;15.70;99.90;;;;;;5015741;28;20439;-77
2022/10/30 05:30:01;;;;;;;1.87;1.67;;;15.70;99.90;;;;;;5016112;28;20449;-76
2022/10/30 05:32:28;;;;;;;0.60;0.50;;;15.70;99.90;;;;;;5016021;28;21003;-77
2022/10/30 05:34:54;;;;;;;0.50;0.30;;;15.70;99.90;;;;;;5015358;28;20544;-77
2022/10/30 05:37:21;;;;;;;0.70;0.70;;;15.60;99.90;;;;;;5014794;28;20868;-77
2022/10/30 05:39:48;;;;;;;2.13;1.90;;;15.60;99.90;;;;;;5014855;28;20449;-77
2022/10/30 05:42:15;;;;;;;0.50;0.30;;;15.60;99.90;;;;;;5015169;28;20493;-75
2022/10/30 05:44:42;;;;;;;0.73;0.73;;;15.60;99.90;;;;;;5015365;28;20894;-76
2022/10/30 05:47:11;;;;;;;0.50;0.30;;;15.50;99.90;;;;;;5015431;28;20566;-76
2022/10/30 05:49:38;;;;;;;0.97;0.63;;;15.40;99.90;;;;;;5014949;28;20530;-77
2022/10/30 05:52:05;;;;;;;0.50;0.40;;;15.50;99.90;;;;;;5015328;28;20550;-77
2022/10/30 05:54:32;;;;;;;0.60;0.50;;;15.40;99.90;;;;;;5014638;28;20471;-76
2022/10/30 05:56:58;;;;;;;0.60;0.50;;;15.40;99.90;;;;;;5015361;28;20454;-76
2022/10/30 05:59:25;;;;;;;0.90;0.90;;;15.40;99.90;;;;;;5015050;28;20449;-77
2022/10/30 06:01:52;;;;;;;1.47;1.37;;;15.40;99.90;;;;;;5015559;28;20506;-77
2022/10/30 06:04:20;;;;;;;1.17;0.70;;;15.40;99.90;;;;;;5014728;28;20562;-76
2022/10/30 06:06:47;;;;;;;0.50;0.40;;;15.40;99.90;;;;;;5014965;28;20561;-77
2022/10/30 06:09:14;;;;;;;0.50;0.43;;;15.40;99.90;;;;;;5015851;28;20533;-76
2022/10/30 06:11:41;;;;;;;0.50;0.40;;;15.40;99.90;;;;;;5015087;28;20542;-76
2022/10/30 06:14:07;;;;;;;0.50;0.30;;;15.40;99.90;;;;;;5015169;28;20458;-77
2022/10/30 06:16:34;;;;;;;0.50;0.40;;;15.40;99.90;;;;;;5014745;28;20439;-76
2022/10/30 06:19:01;;;;;;;0.50;0.40;;;15.30;99.90;;;;;;5014739;28;20435;-77
2022/10/30 06:21:29;;;;;;;0.50;0.40;;;15.20;99.90;;;;;;5015112;28;20449;-76
2022/10/30 06:23:57;;;;;;;0.60;0.50;;;15.30;99.90;;;;;;5013210;28;20934;-75
2022/10/30 06:26:24;;;;;;;1.40;0.67;;;15.30;99.90;;;;;;5014262;28;20483;-77
2022/10/30 06:28:51;;;;;;;0.50;0.40;;;15.30;99.90;;;;;;5014682;28;20435;-76
2022/10/30 06:31:18;;;;;;;0.73;0.60;;;15.30;99.90;;;;;;5014387;28;20541;-77
2022/10/30 06:33:45;;;;;;;0.50;0.30;;;15.30;99.90;;;;;;5013516;28;20463;-76
2022/10/30 06:36:11;;;;;;;1.17;1.07;;;15.20;99.90;;;;;;5014518;28;20438;-77
2022/10/30 06:38:39;;;;;;;0.80;0.80;;;15.30;99.90;;;;;;5014423;28;20510;-77
2022/10/30 06:41:06;;;;;;;0.60;0.60;;;15.30;99.90;;;;;;5014177;28;20478;-77
2022/10/30 06:43:33;;;;;;;0.77;0.50;;;15.40;99.90;;;;;;5013958;28;20459;-77
2022/10/30 06:46:00;;;;;;;0.80;0.80;;;15.40;99.90;;;;;;5013391;28;20475;-77
2022/10/30 06:48:27;;;;;;;0.60;0.57;;;15.40;99.90;;;;;;5013256;28;20435;-76
2022/10/30 06:50:55;;;;;;;0.60;0.50;;;15.40;99.90;;;;;;5013967;28;20525;-77
2022/10/30 06:53:22;;;;;;;1.43;0.80;;;15.40;99.90;;;;;;5013916;28;20435;-76
2022/10/30 06:55:56;;;;;;;0.50;0.40;;;15.50;99.90;;;;;;5013680;28;20862;-77
2022/10/30 06:58:23;;;;;;;0.50;0.40;;;15.60;99.90;;;;;;5013299;28;20485;-76
2022/10/30 07:00:50;;;;;;;0.50;0.30;;;15.50;99.90;;;;;;5013051;28;20445;-76
2022/10/30 07:03:17;;;;;;;3.27;0.70;;;15.70;99.90;;;;;;5012787;28;20609;-77
2022/10/30 07:05:44;;;;;;;0.50;0.40;;;15.80;99.90;;;;;;5012802;28;20965;-77
2022/10/30 07:08:11;;;;;;;0.80;0.70;;;16.00;99.90;;;;;;5011811;28;20435;-76
2022/10/30 07:10:38;;;;;;;0.77;0.77;;;16.20;99.90;;;;;;5012381;28;20451;-77
2022/10/30 07:13:06;;;;;;;0.50;0.30;;;16.60;99.90;;;;;;5012925;28;20962;-76
2022/10/30 07:15:33;;;;;;;1.73;1.00;;;16.90;99.90;;;;;;5013158;28;20520;-77
2022/10/30 07:18:02;;;;;;;0.60;0.60;;;17.20;99.90;;;;;;5012463;28;20439;-76
2022/10/30 07:20:31;;;;;;;0.50;0.50;;;17.70;99.90;;;;;;5013217;28;20435;-77
2022/10/30 07:22:58;;;;;;;0.50;0.30;;;18.00;99.90;;;;;;5013176;28;20446;-77
2022/10/30 07:25:25;;;;;;;1.27;1.27;;;18.50;99.90;;;;;;5013029;28;20542;-76
2022/10/30 07:27:53;;;;;;;0.50;0.30;;;19.00;99.90;;;;;;5012922;28;20478;-76
2022/10/30 07:30:23;;;;;;;0.50;0.30;;;19.60;99.90;;;;;;5012056;28;20445;-76
2022/10/30 07:32:57;;;;;;;0.60;0.50;;;20.30;99.90;;;;;;5011023;28;20435;-76
2022/10/30 07:35:24;;;;;;;0.50;0.40;;;20.80;99.90;;;;;;5011257;28;20989;-77
2022/10/30 07:37:51;;;;;;;0.50;0.30;;;21.20;99.90;;;;;;5011975;28;20469;-76
2022/10/30 07:40:18;;;;;;;0.50;0.30;;;21.50;99.90;;;;;;5011505;28;20449;-77
2022/10/30 07:42:45;;;;;;;5.47;2.10;;;22.10;99.90;;;;;;5011912;28;20439;-77
2022/10/30 07:45:12;;;;;;;0.50;0.30;;;22.50;99.90;;;;;;5011681;28;20469;-76
2022/10/30 07:47:41;;;;;;;0.50;0.30;;;22.60;99.90;;;;;;5011921;28;21071;-77
2022/10/30 07:50:09;;;;;;;0.50;0.30;;;22.60;99.90;;;;;;5011819;28;21047;-76
2022/10/30 07:52:36;;;;;;;0.50;0.30;;;22.90;99.90;;;;;;5012983;28;20876;-77
2022/10/30 07:55:03;;;;;;;0.50;0.40;;;23.30;99.90;;;;;;5011612;28;20466;-77
2022/10/30 07:57:32;;;;;;;0.50;0.50;;;23.90;99.90;;;;;;5011551;28;20533;-77
2022/10/30 07:59:59;;;;;;;0.50;0.30;;;24.40;99.90;;;;;;5012048;28;20446;-76
2022/10/30 08:02:25;;;;;;;0.50;0.40;;;25.10;99.90;;;;;;5012420;28;20525;-77
2022/10/30 08:04:54;;;;;;;0.50;0.40;;;25.80;96.10;;;;;;5012142;28;20469;-77
2022/10/30 08:07:20;;;;;;;7.13;1.60;;;26.50;92.60;;;;;;5012836;28;20564;-77
2022/10/30 08:09:48;;;;;;;0.50;0.30;;;27.20;88.90;;;;;;5013208;28;20489;-77
2022/10/30 08:12:15;;;;;;;0.50;0.30;;;27.90;86.80;;;;;;5013288;28;20505;-78
2022/10/30 08:14:42;;;;;;;0.50;0.30;;;28.10;81.40;;;;;;5012960;28;20896;-77
2022/10/30 08:17:09;;;;;;;0.50;0.30;;;27.80;80.20;;;;;;5013046;28;20474;-77
2022/10/30 08:19:36;;;;;;;0.50;0.40;;;28.40;80.20;;;;;;5014284;28;20489;-77
2022/10/30 08:22:04;;;;;;;0.50;0.40;;;28.80;76.60;;;;;;5014196;28;20450;-77
2022/10/30 08:24:31;;;;;;;0.50;0.30;;;29.10;74.00;;;;;;5012841;28;20558;-77
2022/10/30 08:26:58;;;;;;;0.50;0.40;;;29.40;73.40;;;;;;5014129;28;20481;-77
2022/10/30 08:29:25;;;;;;;0.50;0.40;;;30.00;72.30;;;;;;5014437;28;21042;-77
2022/10/30 08:31:51;;;;;;;3.17;2.93;;;30.50;69.90;;;;;;5014995;28;20424;-77
2022/10/30 08:34:18;;;;;;;0.50;0.30;;;30.70;67.70;;;;;;5013103;28;20470;-77
2022/10/30 08:36:48;;;;;;;0.50;0.30;;;31.10;67.50;;;;;;5014990;28;20445;-77
2022/10/30 08:39:16;;;;;;;0.50;0.30;;;31.50;64.60;;;;;;5014727;28;20445;-77
2022/10/30 08:41:43;;;;;;;1.17;1.07;;;31.50;63.70;;;;;;5014444;28;20443;-77
2022/10/30 08:44:10;;;;;;;0.50;0.30;;;31.20;63.50;;;;;;5014849;28;21009;-77
2022/10/30 08:46:36;;;;;;;0.50;0.50;;;30.50;64.20;;;;;;5016864;28;21008;-77
2022/10/30 08:49:03;;;;;;;0.67;0.57;;;30.10;64.50;;;;;;5016304;28;20451;-77
2022/10/30 08:51:32;;;;;;;0.50;0.30;;;29.20;66.20;;;;;;5015253;28;20461;-77
2022/10/30 08:53:59;;;;;;;0.50;0.30;;;28.70;68.20;;;;;;5015527;28;20462;-77
2022/10/30 08:56:27;;;;;;;0.50;0.30;;;29.20;68.00;;;;;;5016695;28;20443;-77
2022/10/30 08:58:54;;;;;;;0.50;0.43;;;29.70;67.10;;;;;;5017390;28;20957;-77
2022/10/30 09:01:21;;;;;;;0.50;0.30;;;29.20;66.50;;;;;;5015948;28;20848;-77
2022/10/30 09:03:48;;;;;;;0.60;0.50;;;28.20;68.80;;;;;;5015034;28;20498;-77
2022/10/30 09:06:15;;;;;;;2.63;2.07;;;27.50;70.30;;;;;;5015290;28;20517;-77
2022/10/30 09:08:42;;;;;;;0.50;0.50;;;27.10;72.40;;;;;;5015424;28;20457;-77
2022/10/30 09:11:09;;;;;;;1.23;1.20;;;26.90;72.70;;;;;;5015741;28;20493;-77
2022/10/30 09:13:37;;;;;;;1.37;1.27;;;26.70;74.20;;;;;;5017232;28;20463;-77
2022/10/30 09:16:04;;;;;;;0.50;0.40;;;26.40;74.00;;;;;;5017048;28;20443;-77
2022/10/30 09:18:31;;;;;;;0.50;0.30;;;26.10;75.30;;;;;;5016900;28;20805;-76
2022/10/30 09:20:58;;;;;;;1.37;1.27;;;25.80;77.30;;;;;;5017573;28;20467;-77
2022/10/30 09:23:25;;;;;;;0.70;0.50;;;25.60;78.00;;;;;;5016120;28;20475;-76
2022/10/30 09:25:52;;;;;;;0.70;0.67;;;25.20;79.60;;;;;;5017240;28;20533;-76
2022/10/30 09:28:19;;;;;;;0.60;0.50;;;25.00;80.60;;;;;;5017184;28;20477;-77
2022/10/30 09:30:51;;;;;;;0.50;0.30;;;24.60;82.00;;;;;;5016270;28;20465;-77
2022/10/30 09:33:18;;;;;;;0.50;0.30;;;24.20;85.70;;;;;;5090206;22;20520;-77
2022/10/30 09:35:45;;;;;;;1.70;0.50;;;24.10;87.00;;;;;;5090997;28;20435;-76
2022/10/30 09:38:12;;;;;;;0.50;0.30;;;23.70;88.30;;;;;;5093619;28;20427;-76
2022/10/30 09:40:52;;;;;;;2.00;1.90;;;23.50;90.60;;;;;;5093530;28;20530;-76
2022/10/30 09:43:32;;;;;;;0.83;0.73;;;23.50;91.30;;;;;;5092997;28;20447;-76
2022/10/30 09:46:15;;;;;;;0.50;0.40;;;23.20;92.40;;;;;;5092933;28;20940;-76
2022/10/30 09:48:59;;;;;;;0.53;0.50;;;22.90;94.00;;;;;;5093370;28;20467;-79
2022/10/30 09:51:46;;;;;;;0.50;0.40;;;22.90;95.30;;;;;;5093467;28;20841;-74
2022/10/30 09:54:21;;;;;;;13.33;0.63;;;23.00;97.20;;;;;;5092145;28;20808;-77
2022/10/30 09:56:52;;;;;;;0.50;0.30;;;23.20;96.40;;;;;;5092847;28;20412;-75
2022/10/30 09:59:31;;;;;;;0.50;0.40;;;23.00;97.40;;;;;;5092711;28;20424;-76
2022/10/30 10:02:10;;;;;;;1.17;0.40;;;23.10;97.90;;;;;;5092751;28;20453;-76
2022/10/30 10:04:41;;;;;;;0.70;0.50;;;23.20;99.70;;;;;;5092661;28;20435;-77
2022/10/30 10:07:17;;;;;;;0.50;0.30;;;23.30;99.90;;;;;;5092387;28;20475;-76
2022/10/30 10:09:45;;;;;;;0.50;0.30;;;23.30;99.90;;;;;;5092823;28;20443;-76
2022/10/30 10:12:18;;;;;;;3.40;2.83;;;23.40;99.90;;;;;;5092755;28;20463;-77
2022/10/30 10:14:47;;;;;;;0.50;0.30;;;23.30;99.90;;;;;;5092238;28;20439;-77
2022/10/30 10:17:25;;;;;;;0.70;0.70;;;23.30;99.90;;;;;;5092668;28;20439;-76
2022/10/30 10:19:58;;;;;;;0.50;0.30;;;23.10;99.90;;;;;;5092665;28;20434;-76
2022/10/30 10:22:30;;;;;;;0.80;0.80;;;23.00;99.90;;;;;;5092660;28;20447;-77
2022/10/30 10:24:57;;;;;;;0.50;0.30;;;23.10;99.90;;;;;;5091627;28;20950;-77
2022/10/30 10:27:38;;;;;;;0.60;0.50;;;23.10;99.90;;;;;;5092042;28;20481;-79
2022/10/30 10:30:09;;;;;;;0.50;0.30;;;23.00;99.90;;;;;;5092113;28;20445;-77
2022/10/30 10:33:05;;;;;;;0.50;0.30;;;23.20;99.90;;;;;;5092250;28;20471;-76
2022/10/30 10:35:53;;;;;;;0.50;0.40;;;23.40;99.90;;;;;;5091813;28;20426;-75
2022/10/30 10:38:38;;;;;;;1.37;0.90;;;23.60;99.90;;;;;;5092083;28;20443;-77
2022/10/30 10:41:14;;;;;;;0.93;0.80;;;23.60;99.70;;;;;;5091890;28;20435;-77
2022/10/30 10:43:58;;;;;;;2.93;0.90;;;23.40;99.70;;;;;;5092238;28;20495;-76
2022/10/30 10:46:37;;;;;;;0.50;0.40;;;23.50;99.90;;;;;;5092148;28;20431;-76
2022/10/30 10:49:21;;;;;;;1.37;0.83;;;23.70;99.90;;;;;;5092205;28;20832;-76
2022/10/30 10:51:52;;;;;;;0.50;0.30;;;24.10;99.30;;;;;;5091691;28;20451;-76
2022/10/30 10:54:23;;;;;;;0.50;0.40;;;24.20;98.50;;;;;;5091535;28;20519;-77
2022/10/30 10:56:51;;;;;;;0.90;0.50;;;24.40;96.50;;;;;;5091555;28;20921;-76
2022/10/30 10:59:21;;;;;;;0.50;0.37;;;24.50;96.40;;;;;;5092348;28;20445;-79
2022/10/30 11:01:56;;;;;;;0.50;0.30;;;24.60;96.20;;;;;;5091716;28;20455;-77
2022/10/30 11:04:35;;;;;;;0.70;0.70;;;24.60;95.60;;;;;;5091462;28;20438;-76
2022/10/30 11:07:12;;;;;;;1.43;1.37;;;24.70;94.90;;;;;;5090709;28;20982;-77
2022/10/30 11:09:40;;;;;;;0.80;0.70;;;24.60;93.40;;;;;;5091991;28;20435;-74
2022/10/30 11:12:08;;;;;;;1.00;0.87;;;24.50;94.90;;;;;;5092027;28;20461;-77
2022/10/30 11:14:35;;;;;;;0.50;0.40;;;24.50;94.40;;;;;;5091375;28;20443;-77
2022/10/30 11:17:11;;;;;;;1.53;1.53;;;24.60;94.60;;;;;;5091883;28;20439;-76
2022/10/30 11:19:39;;;;;;;0.50;0.30;;;24.70;94.60;;;;;;5091683;28;20443;-73
2022/10/30 11:22:20;;;;;;;0.50;0.30;;;24.80;95.00;;;;;;5091470;28;20467;-77
2022/10/30 11:24:47;;;;;;;0.70;0.60;;;24.90;94.20;;;;;;5090793;28;20908;-76
2022/10/30 11:27:25;;;;;;;0.50;0.30;;;24.90;93.30;;;;;;5090961;28;20479;-76
2022/10/30 11:29:54;;;;;;;0.50;0.30;;;24.70;93.40;;;;;;5091866;28;20521;-76
2022/10/30 11:32:25;;;;;;;0.60;0.40;;;24.90;94.30;;;;;;5091111;28;20474;-76
2022/10/30 11:35:02;;;;;;;1.00;0.87;;;25.10;92.80;;;;;;5090950;28;20470;-77
2022/10/30 11:37:31;;;;;;;0.87;0.87;;;25.10;92.10;;;;;;5091226;28;21020;-77
2022/10/30 11:40:07;;;;;;;4.87;4.00;;;24.90;91.40;;;;;;5091577;28;20871;-77
2022/10/30 11:42:34;;;;;;;0.50;0.30;;;24.70;92.60;;;;;;5091042;28;20459;-77
2022/10/30 11:45:02;;;;;;;0.70;0.50;;;24.40;93.40;;;;;;5091298;28;20823;-78
2022/10/30 11:47:32;;;;;;;0.60;0.50;;;24.20;94.20;;;;;;5090783;28;20467;-77
2022/10/30 11:50:02;;;;;;;1.33;1.23;;;24.10;94.30;;;;;;5091484;28;20571;-77
2022/10/30 11:52:29;;;;;;;1.00;1.00;;;24.10;94.70;;;;;;5090993;28;20466;-72
2022/10/30 11:55:00;;;;;;;1.03;0.93;;;24.10;96.20;;;;;;5090782;28;20522;-77
2022/10/30 11:57:33;;;;;;;0.50;0.40;;;24.20;97.50;;;;;;5090871;28;20435;-77
2022/10/30 12:00:00;;;;;;;0.50;0.30;;;24.00;96.60;;;;;;5091532;28;20449;-77
2022/10/30 12:02:29;;;;;;;1.20;1.20;;;24.00;96.40;;;;;;5090720;28;20459;-77
2022/10/30 12:05:02;;;;;;;0.60;0.60;;;23.90;96.60;;;;;;5090892;28;20449;-77
2022/10/30 12:07:31;;;;;;;0.50;0.37;;;23.80;96.70;;;;;;5091045;28;20459;-77
2022/10/30 12:10:00;;;;;;;1.53;1.13;;;23.50;97.60;;;;;;5090487;28;20529;-77
2022/10/30 12:12:30;;;;;;;2.10;1.43;;;23.40;97.50;;;;;;5090905;28;20459;-78
2022/10/30 12:15:10;;;;;;;0.50;0.40;;;23.50;99.30;;;;;;5090724;28;20439;-76
2022/10/30 12:17:39;;;;;;;0.60;0.53;;;23.50;99.90;;;;;;5092078;28;20423;-73
2022/10/30 12:20:13;;;;;;;0.50;0.40;;;23.30;99.40;;;;;;5095520;28;20447;-77
2022/10/30 12:22:41;;;;;;;0.50;0.40;;;23.20;99.90;;;;;;5094314;28;20994;-77
2022/10/30 12:25:20;;;;;;;0.50;0.30;;;23.10;99.90;;;;;;5093919;28;20431;-79
2022/10/30 12:27:47;;;;;;;0.50;0.40;;;23.10;99.90;;;;;;5094664;28;20999;-77
2022/10/30 12:30:17;;;;;;;1.30;1.20;;;23.10;99.90;;;;;;5094651;28;20443;-77
2022/10/30 12:32:51;;;;;;;0.50;0.40;;;23.10;99.90;;;;;;5094100;28;20475;-76
2022/10/30 12:35:35;;;;;;;1.17;0.40;;;23.10;99.90;;;;;;5094682;28;20766;-78
2022/10/30 12:38:04;;;;;;;1.00;0.57;;;23.10;99.90;;;;;;5094805;28;20416;-77
2022/10/30 12:40:35;;;;;;;7.43;0.77;;;23.00;99.90;;;;;;5094719;28;20446;-76
2022/10/30 12:43:11;;;;;;;0.60;0.50;;;23.10;99.90;;;;;;5094572;28;20465;-77
2022/10/30 12:45:42;;;;;;;1.37;0.60;;;23.00;99.90;;;;;;5094194;28;20517;-76
2022/10/30 12:48:17;;;;;;;0.50;0.30;;;22.90;99.90;;;;;;5094235;28;20474;-79
2022/10/30 12:50:52;;;;;;;0.50;0.30;;;22.90;99.90;;;;;;5094302;28;20808;-75
2022/10/30 12:53:27;;;;;;;0.50;0.30;;;23.10;99.90;;;;;;5094048;28;20990;-76
2022/10/30 12:56:00;;;;;;;0.50;0.30;;;23.20;99.90;;;;;;5093925;28;20428;-77
2022/10/30 12:58:36;;;;;;;0.90;0.90;;;23.40;99.90;;;;;;5093977;28;20912;-74
2022/10/30 13:01:15;;;;;;;0.50;0.40;;;23.60;99.90;;;;;;5094621;28;20451;-77